sensor_id;sensor_type;location;lat;lon;timestamp;P1;durP1;ratioP1;P2;durP2;ratioP2
21114;SDS011;10715;48.546;9.896;2023-06-10T00:01:29;6.40;;;5.20;;
21114;SDS011;10715;48.546;9.896;2023-06-10T00:03:55;4.87;;;4.50;;
21114;SDS011;10715;48.546;9.896;2023-06-10T00:06:21;4.30;;;4.10;;
21114;SDS011;10715;48.546;9.896;2023-06-10T00:08:49;6.90;;;6.33;;
21114;SDS011;10715;48.546;9.896;2023-06-10T00:11:15;9.80;;;4.93;;
21114;SDS011;10715;48.546;9.896;2023-06-10T00:13:41;6.53;;;5.90;;
21114;SDS011;10715;48.546;9.896;2023-06-10T00:16:07;5.63;;;4.97;;
21114;SDS011;10715;48.546;9.896;2023-06-10T00:18:32;5.27;;;4.77;;
21114;SDS011;10715;48.546;9.896;2023-06-10T00:20:58;6.03;;;5.57;;
21114;SDS011;10715;48.546;9.896;2023-06-10T00:23:29;5.83;;;5.27;;
21114;SDS011;10715;48.546;9.896;2023-06-10T00:25:57;5.93;;;5.43;;
21114;SDS011;10715;48.546;9.896;2023-06-10T00:28:24;4.97;;;4.57;;
21114;SDS011;10715;48.546;9.896;2023-06-10T00:30:50;4.70;;;4.40;;
21114;SDS011;10715;48.546;9.896;2023-06-10T00:33:16;5.93;;;5.40;;
21114;SDS011;10715;48.546;9.896;2023-06-10T00:35:42;5.63;;;5.13;;
21114;SDS011;10715;48.546;9.896;2023-06-10T00:38:08;6.33;;;5.83;;
21114;SDS011;10715;48.546;9.896;2023-06-10T00:40:38;5.73;;;5.10;;
21114;SDS011;10715;48.546;9.896;2023-06-10T00:43:05;5.73;;;4.80;;
21114;SDS011;10715;48.546;9.896;2023-06-10T00:45:32;5.57;;;5.17;;
21114;SDS011;10715;48.546;9.896;2023-06-10T00:47:58;5.00;;;4.70;;
21114;SDS011;10715;48.546;9.896;2023-06-10T00:50:28;5.40;;;5.07;;
21114;SDS011;10715;48.546;9.896;2023-06-10T00:52:56;5.17;;;4.87;;
21114;SDS011;10715;48.546;9.896;2023-06-10T00:55:22;6.00;;;4.70;;
21114;SDS011;10715;48.546;9.896;2023-06-10T00:57:48;6.47;;;5.33;;
21114;SDS011;10715;48.546;9.896;2023-06-10T01:00:16;5.50;;;4.93;;
21114;SDS011;10715;48.546;9.896;2023-06-10T01:02:42;6.57;;;6.00;;
21114;SDS011;10715;48.546;9.896;2023-06-10T01:05:08;5.10;;;4.70;;
21114;SDS011;10715;48.546;9.896;2023-06-10T01:07:40;5.87;;;5.37;;
21114;SDS011;10715;48.546;9.896;2023-06-10T01:10:16;4.17;;;3.87;;
21114;SDS011;10715;48.546;9.896;2023-06-10T01:12:52;5.90;;;5.43;;
21114;SDS011;10715;48.546;9.896;2023-06-10T01:15:24;6.20;;;5.77;;
21114;SDS011;10715;48.546;9.896;2023-06-10T01:17:57;6.40;;;4.90;;
21114;SDS011;10715;48.546;9.896;2023-06-10T01:20:27;6.90;;;4.10;;
21114;SDS011;10715;48.546;9.896;2023-06-10T01:22:57;5.67;;;4.83;;
21114;SDS011;10715;48.546;9.896;2023-06-10T01:25:24;5.40;;;4.90;;
21114;SDS011;10715;48.546;9.896;2023-06-10T01:28:13;5.27;;;4.87;;
21114;SDS011;10715;48.546;9.896;2023-06-10T01:33:12;4.80;;;4.50;;
21114;SDS011;10715;48.546;9.896;2023-06-10T01:35:42;5.37;;;5.00;;
21114;SDS011;10715;48.546;9.896;2023-06-10T01:38:09;8.07;;;5.17;;
21114;SDS011;10715;48.546;9.896;2023-06-10T01:40:37;5.73;;;5.30;;
21114;SDS011;10715;48.546;9.896;2023-06-10T01:43:04;6.00;;;5.40;;
21114;SDS011;10715;48.546;9.896;2023-06-10T01:45:29;5.83;;;5.43;;
21114;SDS011;10715;48.546;9.896;2023-06-10T01:47:55;6.10;;;5.50;;
21114;SDS011;10715;48.546;9.896;2023-06-10T01:50:20;5.00;;;4.60;;
21114;SDS011;10715;48.546;9.896;2023-06-10T01:52:46;6.47;;;5.87;;
21114;SDS011;10715;48.546;9.896;2023-06-10T01:55:12;4.97;;;4.57;;
21114;SDS011;10715;48.546;9.896;2023-06-10T01:57:38;8.83;;;5.20;;
21114;SDS011;10715;48.546;9.896;2023-06-10T02:00:04;5.43;;;4.93;;
21114;SDS011;10715;48.546;9.896;2023-06-10T02:02:30;4.17;;;3.87;;
21114;SDS011;10715;48.546;9.896;2023-06-10T02:04:56;7.30;;;4.30;;
21114;SDS011;10715;48.546;9.896;2023-06-10T02:07:22;5.00;;;4.70;;
21114;SDS011;10715;48.546;9.896;2023-06-10T02:09:48;6.50;;;4.43;;
21114;SDS011;10715;48.546;9.896;2023-06-10T02:12:13;5.63;;;5.30;;
21114;SDS011;10715;48.546;9.896;2023-06-10T02:14:39;4.87;;;4.47;;
21114;SDS011;10715;48.546;9.896;2023-06-10T02:17:05;4.83;;;4.50;;
21114;SDS011;10715;48.546;9.896;2023-06-10T02:19:30;6.70;;;5.07;;
21114;SDS011;10715;48.546;9.896;2023-06-10T02:21:56;5.93;;;5.43;;
21114;SDS011;10715;48.546;9.896;2023-06-10T02:24:22;6.00;;;4.73;;
21114;SDS011;10715;48.546;9.896;2023-06-10T02:26:47;6.23;;;5.73;;
21114;SDS011;10715;48.546;9.896;2023-06-10T02:29:13;5.10;;;4.80;;
21114;SDS011;10715;48.546;9.896;2023-06-10T02:31:39;5.57;;;5.07;;
21114;SDS011;10715;48.546;9.896;2023-06-10T02:34:06;7.83;;;5.77;;
21114;SDS011;10715;48.546;9.896;2023-06-10T02:36:31;4.77;;;4.37;;
21114;SDS011;10715;48.546;9.896;2023-06-10T02:38:57;5.17;;;4.60;;
21114;SDS011;10715;48.546;9.896;2023-06-10T02:41:23;7.23;;;4.50;;
21114;SDS011;10715;48.546;9.896;2023-06-10T02:43:50;5.83;;;5.23;;
21114;SDS011;10715;48.546;9.896;2023-06-10T02:46:15;5.80;;;5.20;;
21114;SDS011;10715;48.546;9.896;2023-06-10T02:48:41;5.30;;;4.60;;
21114;SDS011;10715;48.546;9.896;2023-06-10T02:51:11;4.63;;;4.23;;
21114;SDS011;10715;48.546;9.896;2023-06-10T02:53:37;5.97;;;5.47;;
21114;SDS011;10715;48.546;9.896;2023-06-10T02:56:02;7.07;;;5.57;;
21114;SDS011;10715;48.546;9.896;2023-06-10T02:58:29;5.23;;;4.73;;
21114;SDS011;10715;48.546;9.896;2023-06-10T03:00:54;6.07;;;5.53;;
21114;SDS011;10715;48.546;9.896;2023-06-10T03:03:20;4.07;;;3.77;;
21114;SDS011;10715;48.546;9.896;2023-06-10T03:05:47;6.63;;;4.53;;
21114;SDS011;10715;48.546;9.896;2023-06-10T03:08:13;5.77;;;5.30;;
21114;SDS011;10715;48.546;9.896;2023-06-10T03:10:39;6.70;;;4.90;;
21114;SDS011;10715;48.546;9.896;2023-06-10T03:13:05;4.43;;;4.13;;
21114;SDS011;10715;48.546;9.896;2023-06-10T03:15:30;5.40;;;5.10;;
21114;SDS011;10715;48.546;9.896;2023-06-10T03:17:58;7.20;;;4.23;;
21114;SDS011;10715;48.546;9.896;2023-06-10T03:20:25;5.60;;;5.10;;
21114;SDS011;10715;48.546;9.896;2023-06-10T03:22:52;6.93;;;5.80;;
21114;SDS011;10715;48.546;9.896;2023-06-10T03:25:18;9.43;;;5.00;;
21114;SDS011;10715;48.546;9.896;2023-06-10T03:27:45;6.73;;;5.90;;
21114;SDS011;10715;48.546;9.896;2023-06-10T03:30:12;8.70;;;4.57;;
21114;SDS011;10715;48.546;9.896;2023-06-10T03:32:38;5.60;;;5.07;;
21114;SDS011;10715;48.546;9.896;2023-06-10T03:35:06;9.33;;;4.50;;
21114;SDS011;10715;48.546;9.896;2023-06-10T03:37:32;4.33;;;3.90;;
21114;SDS011;10715;48.546;9.896;2023-06-10T03:39:57;4.80;;;4.50;;
21114;SDS011;10715;48.546;9.896;2023-06-10T03:42:23;6.70;;;4.80;;
21114;SDS011;10715;48.546;9.896;2023-06-10T03:44:49;4.50;;;4.20;;
21114;SDS011;10715;48.546;9.896;2023-06-10T03:47:15;5.60;;;5.20;;
21114;SDS011;10715;48.546;9.896;2023-06-10T03:49:41;4.97;;;4.50;;
21114;SDS011;10715;48.546;9.896;2023-06-10T03:52:07;6.20;;;5.67;;
21114;SDS011;10715;48.546;9.896;2023-06-10T03:54:33;5.63;;;5.20;;
21114;SDS011;10715;48.546;9.896;2023-06-10T03:57:01;4.60;;;4.23;;
21114;SDS011;10715;48.546;9.896;2023-06-10T03:59:28;5.47;;;4.90;;
21114;SDS011;10715;48.546;9.896;2023-06-10T04:01:54;5.60;;;5.10;;
21114;SDS011;10715;48.546;9.896;2023-06-10T04:04:19;5.67;;;5.23;;
21114;SDS011;10715;48.546;9.896;2023-06-10T04:06:45;5.73;;;5.30;;
21114;SDS011;10715;48.546;9.896;2023-06-10T04:09:11;5.80;;;5.30;;
21114;SDS011;10715;48.546;9.896;2023-06-10T04:11:37;9.03;;;5.67;;
21114;SDS011;10715;48.546;9.896;2023-06-10T04:14:03;5.67;;;5.17;;
21114;SDS011;10715;48.546;9.896;2023-06-10T04:16:29;6.10;;;5.60;;
21114;SDS011;10715;48.546;9.896;2023-06-10T04:18:54;5.70;;;5.20;;
21114;SDS011;10715;48.546;9.896;2023-06-10T04:21:20;7.00;;;5.40;;
21114;SDS011;10715;48.546;9.896;2023-06-10T04:23:46;5.93;;;4.97;;
21114;SDS011;10715;48.546;9.896;2023-06-10T04:26:13;4.20;;;3.90;;
21114;SDS011;10715;48.546;9.896;2023-06-10T04:28:39;5.43;;;4.73;;
21114;SDS011;10715;48.546;9.896;2023-06-10T04:31:05;4.97;;;4.57;;
21114;SDS011;10715;48.546;9.896;2023-06-10T04:33:30;5.03;;;4.60;;
21114;SDS011;10715;48.546;9.896;2023-06-10T04:35:56;6.70;;;5.13;;
21114;SDS011;10715;48.546;9.896;2023-06-10T04:38:22;6.13;;;5.63;;
21114;SDS011;10715;48.546;9.896;2023-06-10T04:40:48;6.07;;;5.47;;
21114;SDS011;10715;48.546;9.896;2023-06-10T04:43:14;5.80;;;5.30;;
21114;SDS011;10715;48.546;9.896;2023-06-10T04:45:40;5.00;;;4.70;;
21114;SDS011;10715;48.546;9.896;2023-06-10T04:48:10;5.67;;;5.20;;
21114;SDS011;10715;48.546;9.896;2023-06-10T04:50:36;5.27;;;4.87;;
21114;SDS011;10715;48.546;9.896;2023-06-10T04:53:02;6.53;;;5.50;;
21114;SDS011;10715;48.546;9.896;2023-06-10T04:55:28;8.13;;;5.67;;
21114;SDS011;10715;48.546;9.896;2023-06-10T04:57:54;5.07;;;4.57;;
21114;SDS011;10715;48.546;9.896;2023-06-10T05:00:20;6.30;;;5.70;;
21114;SDS011;10715;48.546;9.896;2023-06-10T05:02:46;6.30;;;5.70;;
21114;SDS011;10715;48.546;9.896;2023-06-10T05:05:15;10.40;;;5.63;;
21114;SDS011;10715;48.546;9.896;2023-06-10T05:07:41;5.10;;;4.70;;
21114;SDS011;10715;48.546;9.896;2023-06-10T05:10:07;6.70;;;5.63;;
21114;SDS011;10715;48.546;9.896;2023-06-10T05:12:33;7.03;;;5.30;;
21114;SDS011;10715;48.546;9.896;2023-06-10T05:14:59;6.13;;;5.63;;
21114;SDS011;10715;48.546;9.896;2023-06-10T05:17:25;6.37;;;5.87;;
21114;SDS011;10715;48.546;9.896;2023-06-10T05:19:51;5.40;;;4.90;;
21114;SDS011;10715;48.546;9.896;2023-06-10T05:22:18;12.03;;;5.60;;
21114;SDS011;10715;48.546;9.896;2023-06-10T05:24:44;6.20;;;5.40;;
21114;SDS011;10715;48.546;9.896;2023-06-10T05:27:10;7.27;;;6.03;;
21114;SDS011;10715;48.546;9.896;2023-06-10T05:29:35;6.23;;;5.63;;
21114;SDS011;10715;48.546;9.896;2023-06-10T05:32:01;6.47;;;6.00;;
21114;SDS011;10715;48.546;9.896;2023-06-10T05:34:29;8.83;;;7.00;;
21114;SDS011;10715;48.546;9.896;2023-06-10T05:36:55;7.67;;;6.30;;
21114;SDS011;10715;48.546;9.896;2023-06-10T05:39:20;6.40;;;5.83;;
21114;SDS011;10715;48.546;9.896;2023-06-10T05:41:46;5.53;;;5.03;;
21114;SDS011;10715;48.546;9.896;2023-06-10T05:44:12;7.40;;;5.77;;
21114;SDS011;10715;48.546;9.896;2023-06-10T05:46:38;6.17;;;5.43;;
21114;SDS011;10715;48.546;9.896;2023-06-10T05:49:03;6.17;;;5.67;;
21114;SDS011;10715;48.546;9.896;2023-06-10T05:51:29;6.90;;;5.33;;
21114;SDS011;10715;48.546;9.896;2023-06-10T05:53:55;6.13;;;5.63;;
21114;SDS011;10715;48.546;9.896;2023-06-10T05:56:21;6.67;;;5.70;;
21114;SDS011;10715;48.546;9.896;2023-06-10T05:58:47;5.53;;;5.03;;
21114;SDS011;10715;48.546;9.896;2023-06-10T06:01:13;4.90;;;4.50;;
21114;SDS011;10715;48.546;9.896;2023-06-10T06:03:40;5.30;;;4.80;;
21114;SDS011;10715;48.546;9.896;2023-06-10T06:06:05;4.80;;;3.93;;
21114;SDS011;10715;48.546;9.896;2023-06-10T06:08:31;5.73;;;4.33;;
21114;SDS011;10715;48.546;9.896;2023-06-10T06:10:57;5.60;;;4.67;;
21114;SDS011;10715;48.546;9.896;2023-06-10T06:13:23;4.23;;;3.80;;
21114;SDS011;10715;48.546;9.896;2023-06-10T06:15:49;7.93;;;4.70;;
21114;SDS011;10715;48.546;9.896;2023-06-10T06:18:15;6.10;;;4.70;;
21114;SDS011;10715;48.546;9.896;2023-06-10T06:20:41;5.10;;;4.20;;
21114;SDS011;10715;48.546;9.896;2023-06-10T06:23:06;4.23;;;3.83;;
21114;SDS011;10715;48.546;9.896;2023-06-10T06:25:34;5.33;;;3.73;;
21114;SDS011;10715;48.546;9.896;2023-06-10T06:28:01;7.23;;;4.53;;
21114;SDS011;10715;48.546;9.896;2023-06-10T06:30:27;5.03;;;4.63;;
21114;SDS011;10715;48.546;9.896;2023-06-10T06:32:52;4.47;;;4.07;;
21114;SDS011;10715;48.546;9.896;2023-06-10T06:35:18;4.37;;;3.97;;
21114;SDS011;10715;48.546;9.896;2023-06-10T06:37:44;4.00;;;3.37;;
21114;SDS011;10715;48.546;9.896;2023-06-10T06:40:10;3.47;;;2.90;;
21114;SDS011;10715;48.546;9.896;2023-06-10T06:42:36;4.43;;;4.07;;
21114;SDS011;10715;48.546;9.896;2023-06-10T06:45:02;4.30;;;4.00;;
21114;SDS011;10715;48.546;9.896;2023-06-10T06:47:27;3.60;;;3.30;;
21114;SDS011;10715;48.546;9.896;2023-06-10T06:49:53;5.43;;;4.93;;
21114;SDS011;10715;48.546;9.896;2023-06-10T06:52:19;4.03;;;3.73;;
21114;SDS011;10715;48.546;9.896;2023-06-10T06:54:45;4.70;;;4.30;;
21114;SDS011;10715;48.546;9.896;2023-06-10T06:57:10;3.27;;;3.07;;
21114;SDS011;10715;48.546;9.896;2023-06-10T06:59:36;4.10;;;3.70;;
21114;SDS011;10715;48.546;9.896;2023-06-10T07:02:02;5.40;;;4.07;;
21114;SDS011;10715;48.546;9.896;2023-06-10T07:04:28;3.83;;;3.53;;
21114;SDS011;10715;48.546;9.896;2023-06-10T07:06:55;4.13;;;3.83;;
21114;SDS011;10715;48.546;9.896;2023-06-10T07:09:21;3.67;;;3.47;;
21114;SDS011;10715;48.546;9.896;2023-06-10T07:11:46;3.60;;;3.40;;
21114;SDS011;10715;48.546;9.896;2023-06-10T07:14:12;4.03;;;2.90;;
21114;SDS011;10715;48.546;9.896;2023-06-10T07:16:38;4.40;;;4.00;;
21114;SDS011;10715;48.546;9.896;2023-06-10T07:19:03;4.30;;;3.93;;
21114;SDS011;10715;48.546;9.896;2023-06-10T07:21:29;3.73;;;3.43;;
21114;SDS011;10715;48.546;9.896;2023-06-10T07:23:55;3.33;;;3.13;;
21114;SDS011;10715;48.546;9.896;2023-06-10T07:26:22;4.43;;;3.97;;
21114;SDS011;10715;48.546;9.896;2023-06-10T07:28:48;5.13;;;4.73;;
21114;SDS011;10715;48.546;9.896;2023-06-10T07:31:13;4.93;;;4.53;;
21114;SDS011;10715;48.546;9.896;2023-06-10T07:33:39;3.63;;;3.33;;
21114;SDS011;10715;48.546;9.896;2023-06-10T07:36:06;4.10;;;3.70;;
21114;SDS011;10715;48.546;9.896;2023-06-10T07:38:32;6.50;;;4.83;;
21114;SDS011;10715;48.546;9.896;2023-06-10T07:40:59;3.90;;;3.70;;
21114;SDS011;10715;48.546;9.896;2023-06-10T07:43:24;4.60;;;3.73;;
21114;SDS011;10715;48.546;9.896;2023-06-10T07:45:50;4.27;;;3.87;;
21114;SDS011;10715;48.546;9.896;2023-06-10T07:48:16;4.57;;;4.27;;
21114;SDS011;10715;48.546;9.896;2023-06-10T07:50:42;3.13;;;2.77;;
21114;SDS011;10715;48.546;9.896;2023-06-10T07:53:07;4.93;;;4.50;;
21114;SDS011;10715;48.546;9.896;2023-06-10T07:55:33;3.07;;;2.87;;
21114;SDS011;10715;48.546;9.896;2023-06-10T07:57:59;4.00;;;3.70;;
21114;SDS011;10715;48.546;9.896;2023-06-10T08:00:24;4.23;;;4.03;;
21114;SDS011;10715;48.546;9.896;2023-06-10T08:02:50;4.97;;;4.57;;
21114;SDS011;10715;48.546;9.896;2023-06-10T08:05:17;6.87;;;3.43;;
21114;SDS011;10715;48.546;9.896;2023-06-10T08:07:44;4.83;;;3.90;;
21114;SDS011;10715;48.546;9.896;2023-06-10T08:10:10;3.47;;;3.27;;
21114;SDS011;10715;48.546;9.896;2023-06-10T08:12:36;5.10;;;4.80;;
21114;SDS011;10715;48.546;9.896;2023-06-10T08:15:02;3.50;;;3.30;;
21114;SDS011;10715;48.546;9.896;2023-06-10T08:17:31;5.57;;;3.67;;
21114;SDS011;10715;48.546;9.896;2023-06-10T08:19:56;3.47;;;3.13;;
21114;SDS011;10715;48.546;9.896;2023-06-10T08:22:22;3.30;;;3.10;;
21114;SDS011;10715;48.546;9.896;2023-06-10T08:24:48;3.27;;;3.07;;
21114;SDS011;10715;48.546;9.896;2023-06-10T08:27:13;4.33;;;4.03;;
21114;SDS011;10715;48.546;9.896;2023-06-10T08:29:39;4.00;;;3.70;;
21114;SDS011;10715;48.546;9.896;2023-06-10T08:32:05;7.07;;;3.83;;
21114;SDS011;10715;48.546;9.896;2023-06-10T08:34:34;5.20;;;4.70;;
21114;SDS011;10715;48.546;9.896;2023-06-10T08:37:01;5.00;;;4.50;;
21114;SDS011;10715;48.546;9.896;2023-06-10T08:39:27;4.87;;;4.40;;
21114;SDS011;10715;48.546;9.896;2023-06-10T08:44:53;4.50;;;4.20;;
21114;SDS011;10715;48.546;9.896;2023-06-10T08:47:22;4.63;;;4.23;;
21114;SDS011;10715;48.546;9.896;2023-06-10T08:49:48;4.70;;;4.50;;
21114;SDS011;10715;48.546;9.896;2023-06-10T08:52:15;5.47;;;4.13;;
21114;SDS011;10715;48.546;9.896;2023-06-10T08:54:57;5.80;;;3.50;;
21114;SDS011;10715;48.546;9.896;2023-06-10T08:57:27;4.27;;;4.07;;
21114;SDS011;10715;48.546;9.896;2023-06-10T08:59:56;5.70;;;3.87;;
21114;SDS011;10715;48.546;9.896;2023-06-10T09:02:23;6.20;;;3.60;;
21114;SDS011;10715;48.546;9.896;2023-06-10T09:04:50;4.70;;;4.40;;
21114;SDS011;10715;48.546;9.896;2023-06-10T09:07:17;4.10;;;3.80;;
21114;SDS011;10715;48.546;9.896;2023-06-10T09:09:43;4.70;;;4.30;;
21114;SDS011;10715;48.546;9.896;2023-06-10T09:12:09;4.73;;;4.40;;
21114;SDS011;10715;48.546;9.896;2023-06-10T09:14:36;4.87;;;4.57;;
21114;SDS011;10715;48.546;9.896;2023-06-10T09:17:02;4.40;;;4.07;;
21114;SDS011;10715;48.546;9.896;2023-06-10T09:19:29;4.90;;;4.27;;
21114;SDS011;10715;48.546;9.896;2023-06-10T09:21:54;4.63;;;4.33;;
21114;SDS011;10715;48.546;9.896;2023-06-10T09:24:21;5.13;;;4.53;;
21114;SDS011;10715;48.546;9.896;2023-06-10T09:26:48;4.97;;;4.67;;
21114;SDS011;10715;48.546;9.896;2023-06-10T09:29:15;4.17;;;3.77;;
21114;SDS011;10715;48.546;9.896;2023-06-10T09:31:41;4.10;;;3.90;;
21114;SDS011;10715;48.546;9.896;2023-06-10T09:34:09;4.20;;;3.80;;
21114;SDS011;10715;48.546;9.896;2023-06-10T09:36:35;4.30;;;3.93;;
21114;SDS011;10715;48.546;9.896;2023-06-10T09:39:02;4.27;;;3.97;;
21114;SDS011;10715;48.546;9.896;2023-06-10T09:41:32;4.63;;;4.33;;
21114;SDS011;10715;48.546;9.896;2023-06-10T09:44:09;3.50;;;3.30;;
21114;SDS011;10715;48.546;9.896;2023-06-10T09:46:38;3.77;;;3.27;;
21114;SDS011;10715;48.546;9.896;2023-06-10T09:49:03;4.00;;;3.80;;
21114;SDS011;10715;48.546;9.896;2023-06-10T09:51:29;5.53;;;3.60;;
21114;SDS011;10715;48.546;9.896;2023-06-10T09:53:55;3.63;;;3.40;;
21114;SDS011;10715;48.546;9.896;2023-06-10T09:56:20;6.97;;;4.30;;
21114;SDS011;10715;48.546;9.896;2023-06-10T09:58:49;5.37;;;4.20;;
21114;SDS011;10715;48.546;9.896;2023-06-10T10:01:18;4.83;;;4.53;;
21114;SDS011;10715;48.546;9.896;2023-06-10T10:03:44;4.33;;;4.03;;
21114;SDS011;10715;48.546;9.896;2023-06-10T10:06:11;4.40;;;4.00;;
21114;SDS011;10715;48.546;9.896;2023-06-10T10:08:37;7.03;;;4.50;;
21114;SDS011;10715;48.546;9.896;2023-06-10T10:11:03;4.23;;;3.93;;
21114;SDS011;10715;48.546;9.896;2023-06-10T10:13:29;4.70;;;4.30;;
21114;SDS011;10715;48.546;9.896;2023-06-10T10:15:57;4.10;;;3.90;;
21114;SDS011;10715;48.546;9.896;2023-06-10T10:18:29;3.50;;;3.20;;
21114;SDS011;10715;48.546;9.896;2023-06-10T10:20:56;3.43;;;3.20;;
21114;SDS011;10715;48.546;9.896;2023-06-10T10:23:27;3.73;;;3.53;;
21114;SDS011;10715;48.546;9.896;2023-06-10T10:25:58;6.07;;;3.60;;
21114;SDS011;10715;48.546;9.896;2023-06-10T10:28:29;10.10;;;3.60;;
21114;SDS011;10715;48.546;9.896;2023-06-10T10:31:07;2.83;;;2.73;;
21114;SDS011;10715;48.546;9.896;2023-06-10T10:33:43;6.73;;;3.50;;
21114;SDS011;10715;48.546;9.896;2023-06-10T10:36:16;4.20;;;3.17;;
21114;SDS011;10715;48.546;9.896;2023-06-10T10:38:43;3.00;;;2.80;;
21114;SDS011;10715;48.546;9.896;2023-06-10T10:41:13;2.83;;;2.47;;
21114;SDS011;10715;48.546;9.896;2023-06-10T10:43:39;3.73;;;3.43;;
21114;SDS011;10715;48.546;9.896;2023-06-10T10:46:11;5.87;;;3.53;;
21114;SDS011;10715;48.546;9.896;2023-06-10T10:48:39;3.77;;;3.37;;
21114;SDS011;10715;48.546;9.896;2023-06-10T10:51:06;3.97;;;3.67;;
21114;SDS011;10715;48.546;9.896;2023-06-10T10:53:33;2.93;;;2.73;;
21114;SDS011;10715;48.546;9.896;2023-06-10T10:55:59;3.33;;;3.03;;
21114;SDS011;10715;48.546;9.896;2023-06-10T10:58:30;3.37;;;3.17;;
21114;SDS011;10715;48.546;9.896;2023-06-10T11:00:57;3.40;;;3.20;;
21114;SDS011;10715;48.546;9.896;2023-06-10T11:03:22;3.07;;;2.87;;
21114;SDS011;10715;48.546;9.896;2023-06-10T11:05:54;3.10;;;2.70;;
21114;SDS011;10715;48.546;9.896;2023-06-10T11:10:57;8.00;;;3.67;;
21114;SDS011;10715;48.546;9.896;2023-06-10T11:13:23;4.63;;;4.33;;
21114;SDS011;10715;48.546;9.896;2023-06-10T11:15:56;5.33;;;4.90;;
21114;SDS011;10715;48.546;9.896;2023-06-10T11:18:23;4.23;;;2.90;;
21114;SDS011;10715;48.546;9.896;2023-06-10T11:26:16;3.20;;;3.00;;
21114;SDS011;10715;48.546;9.896;2023-06-10T11:31:19;3.50;;;3.20;;
21114;SDS011;10715;48.546;9.896;2023-06-10T11:33:56;3.43;;;3.23;;
21114;SDS011;10715;48.546;9.896;2023-06-10T11:36:27;3.03;;;2.73;;
21114;SDS011;10715;48.546;9.896;2023-06-10T11:39:06;3.70;;;3.50;;
21114;SDS011;10715;48.546;9.896;2023-06-10T11:41:32;2.90;;;2.70;;
21114;SDS011;10715;48.546;9.896;2023-06-10T11:44:11;3.20;;;2.70;;
21114;SDS011;10715;48.546;9.896;2023-06-10T11:46:38;4.03;;;3.83;;
21114;SDS011;10715;48.546;9.896;2023-06-10T11:49:07;2.97;;;2.80;;
21114;SDS011;10715;48.546;9.896;2023-06-10T11:51:37;4.27;;;2.90;;
21114;SDS011;10715;48.546;9.896;2023-06-10T11:54:05;2.83;;;2.63;;
21114;SDS011;10715;48.546;9.896;2023-06-10T11:56:33;3.57;;;3.37;;
21114;SDS011;10715;48.546;9.896;2023-06-10T12:01:30;4.30;;;3.90;;
21114;SDS011;10715;48.546;9.896;2023-06-10T12:04:05;14.53;;;4.63;;
21114;SDS011;10715;48.546;9.896;2023-06-10T12:06:51;4.30;;;4.10;;
21114;SDS011;10715;48.546;9.896;2023-06-10T12:11:45;4.50;;;4.30;;
21114;SDS011;10715;48.546;9.896;2023-06-10T12:14:45;3.87;;;3.43;;
21114;SDS011;10715;48.546;9.896;2023-06-10T12:17:20;4.83;;;4.50;;
21114;SDS011;10715;48.546;9.896;2023-06-10T12:20:02;3.17;;;3.07;;
21114;SDS011;10715;48.546;9.896;2023-06-10T12:22:36;3.50;;;3.20;;
21114;SDS011;10715;48.546;9.896;2023-06-10T12:25:02;4.20;;;3.90;;
21114;SDS011;10715;48.546;9.896;2023-06-10T12:27:32;5.70;;;4.63;;
21114;SDS011;10715;48.546;9.896;2023-06-10T12:29:59;12.77;;;5.07;;
21114;SDS011;10715;48.546;9.896;2023-06-10T12:32:43;6.37;;;5.30;;
21114;SDS011;10715;48.546;9.896;2023-06-10T12:35:10;6.23;;;4.83;;
21114;SDS011;10715;48.546;9.896;2023-06-10T12:37:38;8.73;;;6.70;;
21114;SDS011;10715;48.546;9.896;2023-06-10T12:40:05;10.93;;;5.53;;
21114;SDS011;10715;48.546;9.896;2023-06-10T12:42:33;7.27;;;6.30;;
21114;SDS011;10715;48.546;9.896;2023-06-10T12:45:01;9.80;;;6.03;;
21114;SDS011;10715;48.546;9.896;2023-06-10T12:47:31;5.10;;;4.70;;
21114;SDS011;10715;48.546;9.896;2023-06-10T12:49:59;5.63;;;5.10;;
21114;SDS011;10715;48.546;9.896;2023-06-10T12:52:26;14.43;;;6.67;;
21114;SDS011;10715;48.546;9.896;2023-06-10T12:54:53;6.50;;;5.13;;
21114;SDS011;10715;48.546;9.896;2023-06-10T12:57:20;6.33;;;5.90;;
21114;SDS011;10715;48.546;9.896;2023-06-10T12:59:46;6.97;;;6.20;;
21114;SDS011;10715;48.546;9.896;2023-06-10T13:02:17;5.77;;;5.37;;
21114;SDS011;10715;48.546;9.896;2023-06-10T13:04:48;7.47;;;6.87;;
21114;SDS011;10715;48.546;9.896;2023-06-10T13:07:14;5.50;;;5.00;;
21114;SDS011;10715;48.546;9.896;2023-06-10T13:09:40;14.13;;;6.97;;
21114;SDS011;10715;48.546;9.896;2023-06-10T13:12:06;5.57;;;5.17;;
21114;SDS011;10715;48.546;9.896;2023-06-10T13:14:33;5.83;;;5.33;;
21114;SDS011;10715;48.546;9.896;2023-06-10T13:16:59;5.80;;;5.50;;
21114;SDS011;10715;48.546;9.896;2023-06-10T13:19:24;5.53;;;5.13;;
21114;SDS011;10715;48.546;9.896;2023-06-10T13:21:51;5.10;;;4.60;;
21114;SDS011;10715;48.546;9.896;2023-06-10T13:24:17;6.50;;;5.90;;
21114;SDS011;10715;48.546;9.896;2023-06-10T13:26:43;5.43;;;5.03;;
21114;SDS011;10715;48.546;9.896;2023-06-10T13:29:08;4.13;;;3.93;;
21114;SDS011;10715;48.546;9.896;2023-06-10T13:31:39;5.57;;;4.83;;
21114;SDS011;10715;48.546;9.896;2023-06-10T13:34:05;5.20;;;4.80;;
21114;SDS011;10715;48.546;9.896;2023-06-10T13:36:31;4.77;;;4.47;;
21114;SDS011;10715;48.546;9.896;2023-06-10T13:38:57;4.07;;;3.87;;
21114;SDS011;10715;48.546;9.896;2023-06-10T13:41:23;4.87;;;4.57;;
21114;SDS011;10715;48.546;9.896;2023-06-10T13:43:49;4.67;;;4.47;;
21114;SDS011;10715;48.546;9.896;2023-06-10T13:46:15;5.43;;;5.10;;
21114;SDS011;10715;48.546;9.896;2023-06-10T13:48:41;4.73;;;4.33;;
21114;SDS011;10715;48.546;9.896;2023-06-10T13:51:07;6.43;;;4.73;;
21114;SDS011;10715;48.546;9.896;2023-06-10T13:53:34;3.83;;;3.50;;
21114;SDS011;10715;48.546;9.896;2023-06-10T13:56:00;3.77;;;3.53;;
21114;SDS011;10715;48.546;9.896;2023-06-10T13:58:25;4.47;;;4.17;;
21114;SDS011;10715;48.546;9.896;2023-06-10T14:00:51;3.20;;;3.00;;
21114;SDS011;10715;48.546;9.896;2023-06-10T14:03:18;4.27;;;4.07;;
21114;SDS011;10715;48.546;9.896;2023-06-10T14:05:43;4.90;;;4.67;;
21114;SDS011;10715;48.546;9.896;2023-06-10T14:08:09;5.20;;;4.80;;
21114;SDS011;10715;48.546;9.896;2023-06-10T14:10:35;6.03;;;5.60;;
21114;SDS011;10715;48.546;9.896;2023-06-10T14:13:00;5.30;;;4.53;;
21114;SDS011;10715;48.546;9.896;2023-06-10T14:15:26;7.93;;;3.50;;
21114;SDS011;10715;48.546;9.896;2023-06-10T14:17:52;4.63;;;4.43;;
21114;SDS011;10715;48.546;9.896;2023-06-10T14:20:17;2.97;;;2.77;;
21114;SDS011;10715;48.546;9.896;2023-06-10T14:22:43;3.50;;;3.30;;
21114;SDS011;10715;48.546;9.896;2023-06-10T14:25:09;3.93;;;3.70;;
21114;SDS011;10715;48.546;9.896;2023-06-10T14:27:36;3.67;;;3.40;;
21114;SDS011;10715;48.546;9.896;2023-06-10T14:30:02;4.10;;;3.87;;
21114;SDS011;10715;48.546;9.896;2023-06-10T14:32:28;3.70;;;3.50;;
21114;SDS011;10715;48.546;9.896;2023-06-10T14:34:54;3.20;;;3.00;;
21114;SDS011;10715;48.546;9.896;2023-06-10T14:37:19;3.50;;;3.30;;
21114;SDS011;10715;48.546;9.896;2023-06-10T14:39:45;4.40;;;4.20;;
21114;SDS011;10715;48.546;9.896;2023-06-10T14:42:11;4.50;;;4.20;;
21114;SDS011;10715;48.546;9.896;2023-06-10T14:44:36;4.20;;;4.00;;
21114;SDS011;10715;48.546;9.896;2023-06-10T14:47:02;3.17;;;2.97;;
21114;SDS011;10715;48.546;9.896;2023-06-10T14:49:28;4.67;;;4.37;;
21114;SDS011;10715;48.546;9.896;2023-06-10T14:51:54;4.80;;;4.47;;
21114;SDS011;10715;48.546;9.896;2023-06-10T14:54:19;6.13;;;4.17;;
21114;SDS011;10715;48.546;9.896;2023-06-10T14:56:45;5.70;;;3.80;;
21114;SDS011;10715;48.546;9.896;2023-06-10T14:59:11;4.47;;;4.07;;
21114;SDS011;10715;48.546;9.896;2023-06-10T15:01:36;3.07;;;2.87;;
21114;SDS011;10715;48.546;9.896;2023-06-10T15:04:02;4.30;;;4.00;;
21114;SDS011;10715;48.546;9.896;2023-06-10T15:06:28;4.40;;;4.10;;
21114;SDS011;10715;48.546;9.896;2023-06-10T15:08:54;4.33;;;4.00;;